sensor_id;sensor_type;location;lat;lon;timestamp;pressure;altitude;pressure_sealevel;temperature;humidity
9261;BME280;4667;42.726;23.252;2023-08-21T00:00:40;95540.66;;;22.66;49.07
9261;BME280;4667;42.726;23.252;2023-08-21T00:03:06;95543.03;;;22.59;49.19
9261;BME280;4667;42.726;23.252;2023-08-21T00:05:33;95539.25;;;22.43;49.23
9261;BME280;4667;42.726;23.252;2023-08-21T00:08:00;95542.38;;;22.36;49.66
9261;BME280;4667;42.726;23.252;2023-08-21T00:10:30;95543.16;;;22.28;49.86
9261;BME280;4667;42.726;23.252;2023-08-21T00:12:57;95545.81;;;22.19;50.47
9261;BME280;4667;42.726;23.252;2023-08-21T00:15:24;95543.78;;;22.16;50.05
9261;BME280;4667;42.726;23.252;2023-08-21T00:17:51;95552.63;;;22.17;50.40
9261;BME280;4667;42.726;23.252;2023-08-21T00:20:18;95544.25;;;22.18;50.29
9261;BME280;4667;42.726;23.252;2023-08-21T00:22:45;95540.53;;;22.05;50.85
9261;BME280;4667;42.726;23.252;2023-08-21T00:25:11;95505.28;;;21.90;50.78
9261;BME280;4667;42.726;23.252;2023-08-21T00:27:39;95538.03;;;22.09;50.48
9261;BME280;4667;42.726;23.252;2023-08-21T00:30:07;95533.41;;;21.92;51.04
9261;BME280;4667;42.726;23.252;2023-08-21T00:32:34;95533.25;;;21.89;51.30
9261;BME280;4667;42.726;23.252;2023-08-21T00:35:01;95540.03;;;21.95;50.95
9261;BME280;4667;42.726;23.252;2023-08-21T00:37:27;95542.09;;;21.89;51.39
9261;BME280;4667;42.726;23.252;2023-08-21T00:39:54;95549.34;;;21.89;51.83
9261;BME280;4667;42.726;23.252;2023-08-21T00:42:21;95553.25;;;21.74;51.87
9261;BME280;4667;42.726;23.252;2023-08-21T00:44:49;95546.91;;;21.70;51.82
9261;BME280;4667;42.726;23.252;2023-08-21T00:47:16;95553.56;;;21.72;51.75
9261;BME280;4667;42.726;23.252;2023-08-21T00:49:43;95553.09;;;21.70;52.51
9261;BME280;4667;42.726;23.252;2023-08-21T00:52:10;95543.56;;;21.64;52.04
9261;BME280;4667;42.726;23.252;2023-08-21T00:54:38;95547.72;;;21.70;52.07
9261;BME280;4667;42.726;23.252;2023-08-21T00:57:05;95547.22;;;21.68;52.41
9261;BME280;4667;42.726;23.252;2023-08-21T00:59:32;95545.13;;;21.57;52.55
9261;BME280;4667;42.726;23.252;2023-08-21T01:02:01;95546.38;;;21.50;53.03
9261;BME280;4667;42.726;23.252;2023-08-21T01:04:28;95549.47;;;21.44;53.35
9261;BME280;4667;42.726;23.252;2023-08-21T01:06:54;95550.56;;;21.43;53.49
9261;BME280;4667;42.726;23.252;2023-08-21T01:09:27;95551.09;;;21.45;53.35
9261;BME280;4667;42.726;23.252;2023-08-21T01:12:02;95553.06;;;21.31;53.91
9261;BME280;4667;42.726;23.252;2023-08-21T01:14:39;95550.47;;;21.25;53.79
9261;BME280;4667;42.726;23.252;2023-08-21T01:17:11;95550.63;;;21.29;53.95
9261;BME280;4667;42.726;23.252;2023-08-21T01:19:41;95496.44;;;20.87;54.10
9261;BME280;4667;42.726;23.252;2023-08-21T01:22:09;95557.06;;;21.19;54.19
9261;BME280;4667;42.726;23.252;2023-08-21T01:24:38;95549.81;;;21.20;54.16
9261;BME280;4667;42.726;23.252;2023-08-21T01:27:05;95554.06;;;21.21;53.89
9261;BME280;4667;42.726;23.252;2023-08-21T01:29:32;95551.19;;;21.17;54.61
9261;BME280;4667;42.726;23.252;2023-08-21T01:32:06;95549.44;;;21.13;54.32
9261;BME280;4667;42.726;23.252;2023-08-21T01:34:34;95547.19;;;21.06;54.70
9261;BME280;4667;42.726;23.252;2023-08-21T01:37:04;95556.38;;;20.91;55.38
9261;BME280;4667;42.726;23.252;2023-08-21T01:39:32;95557.38;;;20.95;55.24
9261;BME280;4667;42.726;23.252;2023-08-21T01:42:00;95554.69;;;20.95;55.22
9261;BME280;4667;42.726;23.252;2023-08-21T01:44:27;95556.88;;;20.93;55.56
9261;BME280;4667;42.726;23.252;2023-08-21T01:46:54;95558.09;;;20.87;55.58
9261;BME280;4667;42.726;23.252;2023-08-21T01:49:20;95537.78;;;20.72;56.07
9261;BME280;4667;42.726;23.252;2023-08-21T01:51:47;95556.66;;;20.67;56.34
9261;BME280;4667;42.726;23.252;2023-08-21T01:54:14;95551.44;;;20.62;56.50
9261;BME280;4667;42.726;23.252;2023-08-21T01:56:40;95549.03;;;20.74;55.98
9261;BME280;4667;42.726;23.252;2023-08-21T01:59:09;95546.53;;;20.78;55.82
9261;BME280;4667;42.726;23.252;2023-08-21T02:01:35;95543.38;;;20.62;56.37
9261;BME280;4667;42.726;23.252;2023-08-21T02:04:02;95548.16;;;20.65;56.57
9261;BME280;4667;42.726;23.252;2023-08-21T02:06:29;95551.94;;;20.64;56.33
9261;BME280;4667;42.726;23.252;2023-08-21T02:08:55;95555.31;;;20.56;56.57
9261;BME280;4667;42.726;23.252;2023-08-21T02:11:22;95556.63;;;20.59;56.55
9261;BME280;4667;42.726;23.252;2023-08-21T02:13:49;95557.41;;;20.59;56.70
9261;BME280;4667;42.726;23.252;2023-08-21T02:16:17;95557.00;;;20.52;56.80
9261;BME280;4667;42.726;23.252;2023-08-21T02:18:43;95556.91;;;20.57;56.84
9261;BME280;4667;42.726;23.252;2023-08-21T02:21:10;95558.63;;;20.53;56.83
9261;BME280;4667;42.726;23.252;2023-08-21T02:23:37;95556.06;;;20.48;57.03
9261;BME280;4667;42.726;23.252;2023-08-21T02:26:03;95558.91;;;20.51;56.83
9261;BME280;4667;42.726;23.252;2023-08-21T02:28:30;95552.16;;;20.40;57.23
9261;BME280;4667;42.726;23.252;2023-08-21T02:30:57;95554.16;;;20.35;57.24
9261;BME280;4667;42.726;23.252;2023-08-21T02:33:25;95515.22;;;20.01;57.42
9261;BME280;4667;42.726;23.252;2023-08-21T02:35:52;95552.38;;;20.30;57.65
9261;BME280;4667;42.726;23.252;2023-08-21T02:38:19;95555.38;;;20.29;57.55
9261;BME280;4667;42.726;23.252;2023-08-21T02:40:45;95556.34;;;20.33;57.56
9261;BME280;4667;42.726;23.252;2023-08-21T02:43:12;95554.97;;;20.21;58.04
9261;BME280;4667;42.726;23.252;2023-08-21T02:45:39;95552.00;;;20.09;58.22
9261;BME280;4667;42.726;23.252;2023-08-21T02:48:06;95553.59;;;20.10;58.08
9261;BME280;4667;42.726;23.252;2023-08-21T02:50:34;95553.59;;;20.10;58.08
9261;BME280;4667;42.726;23.252;2023-08-21T02:53:01;95547.34;;;20.01;57.91
9261;BME280;4667;42.726;23.252;2023-08-21T02:55:27;95550.44;;;20.08;58.16
9261;BME280;4667;42.726;23.252;2023-08-21T02:57:54;95559.66;;;20.02;58.15
9261;BME280;4667;42.726;23.252;2023-08-21T03:00:21;95560.16;;;20.04;57.93
9261;BME280;4667;42.726;23.252;2023-08-21T03:02:48;95559.34;;;19.90;58.48
9261;BME280;4667;42.726;23.252;2023-08-21T03:05:15;95549.84;;;19.84;58.50
9261;BME280;4667;42.726;23.252;2023-08-21T03:07:43;95562.44;;;19.83;58.59
9261;BME280;4667;42.726;23.252;2023-08-21T03:10:10;95569.59;;;19.88;58.31
9261;BME280;4667;42.726;23.252;2023-08-21T03:12:37;95567.50;;;19.85;58.40
9261;BME280;4667;42.726;23.252;2023-08-21T03:15:04;95575.44;;;19.76;58.84
9261;BME280;4667;42.726;23.252;2023-08-21T03:17:31;95572.66;;;19.67;58.97
9261;BME280;4667;42.726;23.252;2023-08-21T03:20:00;95575.91;;;19.64;59.23
9261;BME280;4667;42.726;23.252;2023-08-21T03:22:29;95576.78;;;19.60;59.09
9261;BME280;4667;42.726;23.252;2023-08-21T03:24:58;95575.88;;;19.51;59.19
9261;BME280;4667;42.726;23.252;2023-08-21T03:27:25;95577.16;;;19.53;59.22
9261;BME280;4667;42.726;23.252;2023-08-21T03:29:52;95577.16;;;19.53;59.41
9261;BME280;4667;42.726;23.252;2023-08-21T03:32:18;95572.00;;;19.57;59.04
9261;BME280;4667;42.726;23.252;2023-08-21T03:34:45;95583.19;;;19.59;58.96
9261;BME280;4667;42.726;23.252;2023-08-21T03:37:12;95584.22;;;19.63;58.84
9261;BME280;4667;42.726;23.252;2023-08-21T03:39:38;95582.25;;;19.68;58.67
9261;BME280;4667;42.726;23.252;2023-08-21T03:42:07;95567.28;;;19.67;58.38
9261;BME280;4667;42.726;23.252;2023-08-21T03:44:33;95579.19;;;19.75;58.30
9261;BME280;4667;42.726;23.252;2023-08-21T03:47:00;95586.25;;;19.71;58.42
9261;BME280;4667;42.726;23.252;2023-08-21T03:49:27;95580.69;;;19.67;58.72
9261;BME280;4667;42.726;23.252;2023-08-21T03:51:54;95579.56;;;19.68;58.23
9261;BME280;4667;42.726;23.252;2023-08-21T03:54:20;95580.28;;;19.74;58.59
9261;BME280;4667;42.726;23.252;2023-08-21T03:56:47;95562.44;;;19.69;58.17
9261;BME280;4667;42.726;23.252;2023-08-21T03:59:15;95580.88;;;19.85;58.36
9261;BME280;4667;42.726;23.252;2023-08-21T04:01:42;95585.22;;;19.81;58.49
9261;BME280;4667;42.726;23.252;2023-08-21T04:04:09;95579.97;;;19.89;58.16
9261;BME280;4667;42.726;23.252;2023-08-21T04:06:36;95587.03;;;19.99;58.00
9261;BME280;4667;42.726;23.252;2023-08-21T04:09:03;95582.88;;;19.93;57.92
9261;BME280;4667;42.726;23.252;2023-08-21T04:11:31;95587.13;;;20.08;57.68
9261;BME280;4667;42.726;23.252;2023-08-21T04:13:58;95584.47;;;20.08;58.06
9261;BME280;4667;42.726;23.252;2023-08-21T04:16:27;95592.28;;;20.18;57.89
9261;BME280;4667;42.726;23.252;2023-08-21T04:18:54;95593.56;;;20.20;57.97
9261;BME280;4667;42.726;23.252;2023-08-21T04:21:21;95589.78;;;20.21;57.90
9261;BME280;4667;42.726;23.252;2023-08-21T04:23:48;95595.84;;;20.27;57.80
9261;BME280;4667;42.726;23.252;2023-08-21T04:26:14;95594.94;;;20.32;57.78
9261;BME280;4667;42.726;23.252;2023-08-21T04:28:41;95594.66;;;20.33;57.97
9261;BME280;4667;42.726;23.252;2023-08-21T04:31:08;95564.88;;;20.21;57.70
9261;BME280;4667;42.726;23.252;2023-08-21T04:33:36;95597.91;;;20.44;57.63
9261;BME280;4667;42.726;23.252;2023-08-21T04:36:03;95604.56;;;20.46;57.64
9261;BME280;4667;42.726;23.252;2023-08-21T04:38:30;95594.53;;;20.52;57.26
9261;BME280;4667;42.726;23.252;2023-08-21T04:41:05;95550.72;;;20.20;57.10
9261;BME280;4667;42.726;23.252;2023-08-21T04:43:32;95610.00;;;20.69;56.53
9261;BME280;4667;42.726;23.252;2023-08-21T04:45:59;95602.00;;;20.77;56.40
9261;BME280;4667;42.726;23.252;2023-08-21T04:48:25;95601.09;;;20.82;55.62
9261;BME280;4667;42.726;23.252;2023-08-21T04:50:54;95598.41;;;20.82;55.95
9261;BME280;4667;42.726;23.252;2023-08-21T04:53:20;95605.56;;;20.87;55.84
9261;BME280;4667;42.726;23.252;2023-08-21T04:55:47;95598.72;;;20.81;56.00
9261;BME280;4667;42.726;23.252;2023-08-21T04:58:14;95606.22;;;20.92;55.32
9261;BME280;4667;42.726;23.252;2023-08-21T05:00:44;95613.69;;;20.95;55.71
9261;BME280;4667;42.726;23.252;2023-08-21T05:03:11;95616.56;;;20.99;55.81
9261;BME280;4667;42.726;23.252;2023-08-21T05:05:37;95613.13;;;21.07;55.37
9261;BME280;4667;42.726;23.252;2023-08-21T05:08:06;95618.69;;;21.11;55.75
9261;BME280;4667;42.726;23.252;2023-08-21T05:10:32;95614.91;;;21.12;55.55
9261;BME280;4667;42.726;23.252;2023-08-21T05:12:59;95630.44;;;21.23;54.84
9261;BME280;4667;42.726;23.252;2023-08-21T05:15:26;95623.88;;;21.29;54.66
9261;BME280;4667;42.726;23.252;2023-08-21T05:17:52;95629.81;;;21.40;54.66
9261;BME280;4667;42.726;23.252;2023-08-21T05:20:19;95621.00;;;21.48;54.03
9261;BME280;4667;42.726;23.252;2023-08-21T05:22:46;95627.34;;;21.52;54.23
9261;BME280;4667;42.726;23.252;2023-08-21T05:25:14;95627.28;;;21.66;53.41
9261;BME280;4667;42.726;23.252;2023-08-21T05:27:41;95625.69;;;21.65;53.66
9261;BME280;4667;42.726;23.252;2023-08-21T05:30:09;95616.09;;;21.73;53.57
9261;BME280;4667;42.726;23.252;2023-08-21T05:32:37;95620.53;;;21.77;53.25
9261;BME280;4667;42.726;23.252;2023-08-21T05:35:05;95622.63;;;21.89;53.06
9261;BME280;4667;42.726;23.252;2023-08-21T05:37:33;95621.09;;;21.97;52.42
9261;BME280;4667;42.726;23.252;2023-08-21T05:40:00;95616.47;;;22.11;52.21
9261;BME280;4667;42.726;23.252;2023-08-21T05:42:30;95599.34;;;22.07;52.39
9261;BME280;4667;42.726;23.252;2023-08-21T05:44:57;95619.50;;;22.27;51.97
9261;BME280;4667;42.726;23.252;2023-08-21T05:47:23;95613.81;;;22.28;51.74
9261;BME280;4667;42.726;23.252;2023-08-21T05:49:52;95608.94;;;22.39;51.04
9261;BME280;4667;42.726;23.252;2023-08-21T05:52:19;95607.84;;;22.49;50.64
9261;BME280;4667;42.726;23.252;2023-08-21T05:54:46;95612.47;;;22.66;50.18
9261;BME280;4667;42.726;23.252;2023-08-21T05:57:12;95610.91;;;22.73;50.13
9261;BME280;4667;42.726;23.252;2023-08-21T05:59:45;95603.59;;;22.82;49.63
9261;BME280;4667;42.726;23.252;2023-08-21T06:02:13;95608.38;;;22.86;49.14
9261;BME280;4667;42.726;23.252;2023-08-21T06:04:40;95602.53;;;23.01;48.74
9261;BME280;4667;42.726;23.252;2023-08-21T06:07:07;95606.94;;;23.23;48.65
9261;BME280;4667;42.726;23.252;2023-08-21T06:09:34;95612.94;;;23.46;47.73
9261;BME280;4667;42.726;23.252;2023-08-21T06:12:02;95614.22;;;23.40;47.49
9261;BME280;4667;42.726;23.252;2023-08-21T06:14:29;95612.75;;;23.68;46.96
9261;BME280;4667;42.726;23.252;2023-08-21T06:16:58;95612.53;;;23.91;46.57
9261;BME280;4667;42.726;23.252;2023-08-21T06:19:25;95568.84;;;23.76;46.57
9261;BME280;4667;42.726;23.252;2023-08-21T06:21:52;95616.94;;;23.95;45.74
9261;BME280;4667;42.726;23.252;2023-08-21T06:24:18;95616.97;;;24.25;45.57
9261;BME280;4667;42.726;23.252;2023-08-21T06:26:45;95615.03;;;24.43;45.75
9261;BME280;4667;42.726;23.252;2023-08-21T06:29:12;95608.56;;;24.56;44.91
9261;BME280;4667;42.726;23.252;2023-08-21T06:31:39;95616.47;;;24.61;45.13
9261;BME280;4667;42.726;23.252;2023-08-21T06:34:07;95619.31;;;24.85;44.71
9261;BME280;4667;42.726;23.252;2023-08-21T06:36:33;95612.75;;;24.74;44.14
9261;BME280;4667;42.726;23.252;2023-08-21T06:39:01;95616.81;;;25.01;43.73
9261;BME280;4667;42.726;23.252;2023-08-21T06:41:29;95622.44;;;25.17;43.45
9261;BME280;4667;42.726;23.252;2023-08-21T06:43:56;95618.09;;;25.25;42.99
9261;BME280;4667;42.726;23.252;2023-08-21T06:46:23;95625.38;;;25.45;42.33
9261;BME280;4667;42.726;23.252;2023-08-21T06:48:50;95621.19;;;25.35;42.27
9261;BME280;4667;42.726;23.252;2023-08-21T06:51:18;95595.19;;;25.43;42.45
9261;BME280;4667;42.726;23.252;2023-08-21T06:53:45;95616.09;;;25.67;42.07
9261;BME280;4667;42.726;23.252;2023-08-21T06:56:12;95626.56;;;25.68;42.18
9261;BME280;4667;42.726;23.252;2023-08-21T06:58:38;95624.72;;;25.93;42.08
9261;BME280;4667;42.726;23.252;2023-08-21T07:01:05;95622.59;;;25.87;42.12
9261;BME280;4667;42.726;23.252;2023-08-21T07:03:32;95618.78;;;26.00;41.36
9261;BME280;4667;42.726;23.252;2023-08-21T07:05:59;95621.94;;;26.14;41.30
9261;BME280;4667;42.726;23.252;2023-08-21T07:08:28;95622.38;;;26.29;40.85
9261;BME280;4667;42.726;23.252;2023-08-21T07:10:55;95574.63;;;26.08;41.11
9261;BME280;4667;42.726;23.252;2023-08-21T07:13:22;95619.81;;;26.57;40.70
9261;BME280;4667;42.726;23.252;2023-08-21T07:15:48;95618.22;;;26.56;40.85
9261;BME280;4667;42.726;23.252;2023-08-21T07:18:18;95608.97;;;26.69;40.95
9261;BME280;4667;42.726;23.252;2023-08-21T07:20:45;95611.41;;;26.99;40.58
9261;BME280;4667;42.726;23.252;2023-08-21T07:23:12;95613.09;;;26.91;40.45
9261;BME280;4667;42.726;23.252;2023-08-21T07:25:40;95612.47;;;27.22;40.19
9261;BME280;4667;42.726;23.252;2023-08-21T07:31:47;95609.84;;;27.54;39.13
9261;BME280;4667;42.726;23.252;2023-08-21T07:34:14;95609.22;;;27.72;38.77
9261;BME280;4667;42.726;23.252;2023-08-21T07:36:41;95609.69;;;27.62;38.98
9261;BME280;4667;42.726;23.252;2023-08-21T07:39:07;95610.47;;;27.91;38.29
9261;BME280;4667;42.726;23.252;2023-08-21T07:41:36;95607.28;;;28.05;37.34
9261;BME280;4667;42.726;23.252;2023-08-21T07:44:02;95534.56;;;27.75;36.09
9261;BME280;4667;42.726;23.252;2023-08-21T07:46:29;95604.25;;;28.38;36.21
9261;BME280;4667;42.726;23.252;2023-08-21T07:48:56;95600.19;;;28.63;36.03
9261;BME280;4667;42.726;23.252;2023-08-21T07:51:22;95594.34;;;28.61;36.53
9261;BME280;4667;42.726;23.252;2023-08-21T07:53:49;95596.00;;;28.85;35.54
9261;BME280;4667;42.726;23.252;2023-08-21T07:56:16;95585.09;;;29.01;35.31
9261;BME280;4667;42.726;23.252;2023-08-21T07:58:44;95594.59;;;29.11;35.47
9261;BME280;4667;42.726;23.252;2023-08-21T08:01:11;95590.94;;;29.42;34.95
9261;BME280;4667;42.726;23.252;2023-08-21T08:03:37;95591.69;;;29.39;34.65
9261;BME280;4667;42.726;23.252;2023-08-21T08:06:04;95583.28;;;29.67;34.34
9261;BME280;4667;42.726;23.252;2023-08-21T08:08:31;95577.13;;;29.93;33.50
9261;BME280;4667;42.726;23.252;2023-08-21T08:11:01;95545.88;;;30.06;33.86
9261;BME280;4667;42.726;23.252;2023-08-21T08:13:28;95583.28;;;30.62;33.61
9261;BME280;4667;42.726;23.252;2023-08-21T08:15:57;95584.06;;;30.63;32.38
9261;BME280;4667;42.726;23.252;2023-08-21T08:18:23;95581.53;;;30.73;32.68
9261;BME280;4667;42.726;23.252;2023-08-21T08:20:50;95579.00;;;30.91;32.68
9261;BME280;4667;42.726;23.252;2023-08-21T08:23:19;95574.91;;;31.04;32.30
9261;BME280;4667;42.726;23.252;2023-08-21T08:25:46;95578.97;;;31.51;32.37
9261;BME280;4667;42.726;23.252;2023-08-21T08:28:38;95573.44;;;32.29;29.46
9261;BME280;4667;42.726;23.252;2023-08-21T08:31:06;95564.19;;;33.03;28.79
9261;BME280;4667;42.726;23.252;2023-08-21T08:33:33;95577.34;;;33.88;27.79
9261;BME280;4667;42.726;23.252;2023-08-21T08:36:00;95563.63;;;34.63;26.70
9261;BME280;4667;42.726;23.252;2023-08-21T08:38:27;95559.84;;;35.45;25.96
9261;BME280;4667;42.726;23.252;2023-08-21T08:40:54;95565.03;;;35.99;24.90
9261;BME280;4667;42.726;23.252;2023-08-21T08:43:24;95556.97;;;36.67;24.34
9261;BME280;4667;42.726;23.252;2023-08-21T08:45:52;95525.13;;;37.07;22.98
9261;BME280;4667;42.726;23.252;2023-08-21T08:48:23;95557.78;;;37.02;22.96
9261;BME280;4667;42.726;23.252;2023-08-21T08:50:50;95548.94;;;37.17;23.37
9261;BME280;4667;42.726;23.252;2023-08-21T08:53:17;95557.94;;;38.06;22.49
9261;BME280;4667;42.726;23.252;2023-08-21T08:55:45;95554.81;;;38.31;21.45
9261;BME280;4667;42.726;23.252;2023-08-21T08:58:12;95547.22;;;38.59;21.49
9261;BME280;4667;42.726;23.252;2023-08-21T09:00:38;95552.72;;;39.02;21.31
9261;BME280;4667;42.726;23.252;2023-08-21T09:03:05;95544.53;;;39.18;21.45
9261;BME280;4667;42.726;23.252;2023-08-21T09:05:34;95544.03;;;39.23;21.10
9261;BME280;4667;42.726;23.252;2023-08-21T09:08:09;95540.56;;;39.19;20.24
9261;BME280;4667;42.726;23.252;2023-08-21T09:10:36;95546.69;;;39.83;19.53
9261;BME280;4667;42.726;23.252;2023-08-21T09:13:09;95523.13;;;39.79;19.72
9261;BME280;4667;42.726;23.252;2023-08-21T09:15:36;95540.03;;;40.30;20.42
9261;BME280;4667;42.726;23.252;2023-08-21T09:18:03;95541.53;;;40.63;18.93
9261;BME280;4667;42.726;23.252;2023-08-21T09:20:35;95541.56;;;40.92;18.28
9261;BME280;4667;42.726;23.252;2023-08-21T09:23:02;95539.41;;;40.84;18.53
9261;BME280;4667;42.726;23.252;2023-08-21T09:25:34;95434.91;;;40.49;17.99
9261;BME280;4667;42.726;23.252;2023-08-21T09:28:05;95538.19;;;41.68;17.27
9261;BME280;4667;42.726;23.252;2023-08-21T09:30:46;95525.88;;;41.69;17.88
9261;BME280;4667;42.726;23.252;2023-08-21T09:33:17;95535.63;;;41.87;17.77
9261;BME280;4667;42.726;23.252;2023-08-21T09:35:45;95538.84;;;41.85;17.84
9261;BME280;4667;42.726;23.252;2023-08-21T09:38:12;95535.06;;;41.92;16.98
9261;BME280;4667;42.726;23.252;2023-08-21T09:40:40;95525.00;;;41.47;18.57
9261;BME280;4667;42.726;23.252;2023-08-21T09:43:09;95532.19;;;41.70;17.22
9261;BME280;4667;42.726;23.252;2023-08-21T09:45:36;95526.09;;;41.37;16.80
9261;BME280;4667;42.726;23.252;2023-08-21T09:48:04;95511.09;;;41.21;16.61
9261;BME280;4667;42.726;23.252;2023-08-21T09:50:31;95521.66;;;41.39;16.68
9261;BME280;4667;42.726;23.252;2023-08-21T09:53:00;95504.59;;;42.04;16.95
9261;BME280;4667;42.726;23.252;2023-08-21T09:55:28;95518.97;;;42.25;16.93
9261;BME280;4667;42.726;23.252;2023-08-21T09:57:58;95504.69;;;42.48;16.82
9261;BME280;4667;42.726;23.252;2023-08-21T10:00:30;95499.97;;;42.36;16.44
9261;BME280;4667;42.726;23.252;2023-08-21T10:03:00;95425.75;;;41.84;16.72
9261;BME280;4667;42.726;23.252;2023-08-21T10:05:28;95459.09;;;41.93;16.33
9261;BME280;4667;42.726;23.252;2023-08-21T10:07:56;95500.66;;;42.27;16.58
9261;BME280;4667;42.726;23.252;2023-08-21T10:10:24;95492.38;;;42.15;16.40
9261;BME280;4667;42.726;23.252;2023-08-21T10:12:51;95496.63;;;41.94;16.16
9261;BME280;4667;42.726;23.252;2023-08-21T10:15:18;95489.16;;;42.29;15.57
9261;BME280;4667;42.726;23.252;2023-08-21T10:17:45;95446.72;;;42.06;16.62
9261;BME280;4667;42.726;23.252;2023-08-21T10:20:12;95493.03;;;42.53;15.59
9261;BME280;4667;42.726;23.252;2023-08-21T10:22:42;95486.19;;;42.23;15.05
9261;BME280;4667;42.726;23.252;2023-08-21T10:25:16;95498.75;;;42.37;15.58
9261;BME280;4667;42.726;23.252;2023-08-21T10:27:49;95484.03;;;42.62;15.87
9261;BME280;4667;42.726;23.252;2023-08-21T10:30:20;95483.44;;;42.45;16.16
9261;BME280;4667;42.726;23.252;2023-08-21T10:32:48;95471.34;;;41.92;15.95
9261;BME280;4667;42.726;23.252;2023-08-21T10:35:18;95471.34;;;41.92;15.23
9261;BME280;4667;42.726;23.252;2023-08-21T10:38:05;95471.00;;;42.50;15.26
9261;BME280;4667;42.726;23.252;2023-08-21T10:40:32;95466.09;;;42.54;15.46
9261;BME280;4667;42.726;23.252;2023-08-21T10:43:00;95467.19;;;42.56;14.48
9261;BME280;4667;42.726;23.252;2023-08-21T10:45:28;95453.09;;;42.86;15.04
9261;BME280;4667;42.726;23.252;2023-08-21T10:47:57;95454.66;;;42.65;14.65
9261;BME280;4667;42.726;23.252;2023-08-21T10:50:23;95452.16;;;42.10;15.39
9261;BME280;4667;42.726;23.252;2023-08-21T10:52:51;95452.09;;;42.36;15.55
9261;BME280;4667;42.726;23.252;2023-08-21T10:55:19;95424.56;;;42.41;16.07
9261;BME280;4667;42.726;23.252;2023-08-21T10:57:47;95415.91;;;41.83;15.87
9261;BME280;4667;42.726;23.252;2023-08-21T11:00:16;95439.16;;;41.72;16.30
9261;BME280;4667;42.726;23.252;2023-08-21T11:02:44;95435.63;;;42.06;15.05
9261;BME280;4667;42.726;23.252;2023-08-21T11:05:12;95436.72;;;42.22;15.56
9261;BME280;4667;42.726;23.252;2023-08-21T11:07:40;95438.91;;;42.62;14.81
9261;BME280;4667;42.726;23.252;2023-08-21T11:10:11;95430.19;;;42.72;14.63
9261;BME280;4667;42.726;23.252;2023-08-21T11:12:39;95420.31;;;42.71;14.71
9261;BME280;4667;42.726;23.252;2023-08-21T11:15:15;95420.13;;;42.44;14.75
9261;BME280;4667;42.726;23.252;2023-08-21T11:17:42;95420.81;;;42.57;14.06
9261;BME280;4667;42.726;23.252;2023-08-21T11:20:09;95433.16;;;41.61;14.37
9261;BME280;4667;42.726;23.252;2023-08-21T11:22:36;95435.59;;;41.08;16.03
9261;BME280;4667;42.726;23.252;2023-08-21T11:25:04;95426.69;;;40.75;15.96
9261;BME280;4667;42.726;23.252;2023-08-21T11:27:31;95329.88;;;39.62;16.06
9261;BME280;4667;42.726;23.252;2023-08-21T11:29:58;95429.00;;;40.35;16.55
9261;BME280;4667;42.726;23.252;2023-08-21T11:32:28;95432.84;;;39.75;17.19
9261;BME280;4667;42.726;23.252;2023-08-21T11:34:56;95417.41;;;38.73;17.48
9261;BME280;4667;42.726;23.252;2023-08-21T11:37:24;95423.81;;;39.06;17.14
9261;BME280;4667;42.726;23.252;2023-08-21T11:39:52;95363.34;;;38.79;16.43
9261;BME280;4667;42.726;23.252;2023-08-21T11:42:20;95417.56;;;39.55;16.79
9261;BME280;4667;42.726;23.252;2023-08-21T11:44:50;95384.38;;;40.20;16.89
9261;BME280;4667;42.726;23.252;2023-08-21T11:47:18;95365.75;;;40.66;16.35
9261;BME280;4667;42.726;23.252;2023-08-21T11:49:47;95407.09;;;41.37;15.22
9261;BME280;4667;42.726;23.252;2023-08-21T11:52:18;95404.69;;;41.73;16.13
9261;BME280;4667;42.726;23.252;2023-08-21T11:54:47;95401.72;;;41.55;15.08
9261;BME280;4667;42.726;23.252;2023-08-21T11:57:14;95407.06;;;41.24;15.09
9261;BME280;4667;42.726;23.252;2023-08-21T11:59:41;95400.31;;;40.58;15.31
9261;BME280;4667;42.726;23.252;2023-08-21T12:02:10;95405.97;;;39.63;16.67
9261;BME280;4667;42.726;23.252;2023-08-21T12:04:37;95405.59;;;38.72;17.29
9261;BME280;4667;42.726;23.252;2023-08-21T12:07:05;95402.91;;;38.49;17.68
9261;BME280;4667;42.726;23.252;2023-08-21T12:09:32;95405.09;;;39.14;18.81
9261;BME280;4667;42.726;23.252;2023-08-21T12:11:59;95406.47;;;39.74;17.06
9261;BME280;4667;42.726;23.252;2023-08-21T12:14:28;95399.59;;;40.41;16.42
9261;BME280;4667;42.726;23.252;2023-08-21T12:16:55;95386.38;;;41.03;15.62
9261;BME280;4667;42.726;23.252;2023-08-21T12:19:22;95389.16;;;41.89;14.42
9261;BME280;4667;42.726;23.252;2023-08-21T12:21:50;95383.50;;;42.49;14.10
9261;BME280;4667;42.726;23.252;2023-08-21T12:24:18;95373.22;;;42.80;13.59
9261;BME280;4667;42.726;23.252;2023-08-21T12:26:45;95312.75;;;42.66;13.87
9261;BME280;4667;42.726;23.252;2023-08-21T12:29:11;95375.97;;;43.02;15.00
9261;BME280;4667;42.726;23.252;2023-08-21T12:31:38;95383.16;;;42.47;15.36
9261;BME280;4667;42.726;23.252;2023-08-21T12:34:05;95389.81;;;41.93;15.11
9261;BME280;4667;42.726;23.252;2023-08-21T12:36:34;95379.72;;;41.26;15.35
9261;BME280;4667;42.726;23.252;2023-08-21T12:39:01;95373.38;;;41.51;15.09
9261;BME280;4667;42.726;23.252;2023-08-21T12:41:29;95357.94;;;42.10;15.47
9261;BME280;4667;42.726;23.252;2023-08-21T12:43:56;95335.25;;;42.46;14.58
9261;BME280;4667;42.726;23.252;2023-08-21T12:46:23;95371.06;;;43.06;14.30
9261;BME280;4667;42.726;23.252;2023-08-21T12:48:51;95358.50;;;43.33;13.35
9261;BME280;4667;42.726;23.252;2023-08-21T12:51:18;95355.94;;;43.48;13.73
9261;BME280;4667;42.726;23.252;2023-08-21T12:53:45;95364.00;;;43.24;13.19
9261;BME280;4667;42.726;23.252;2023-08-21T12:56:11;95355.63;;;43.05;13.34
9261;BME280;4667;42.726;23.252;2023-08-21T12:58:39;95361.91;;;43.37;13.24
9261;BME280;4667;42.726;23.252;2023-08-21T13:01:06;95370.53;;;43.39;13.45
9261;BME280;4667;42.726;23.252;2023-08-21T13:03:33;95344.44;;;42.87;13.43
9261;BME280;4667;42.726;23.252;2023-08-21T13:06:00;95347.75;;;42.73;13.82
9261;BME280;4667;42.726;23.252;2023-08-21T13:08:26;95351.16;;;42.77;14.15
9261;BME280;4667;42.726;23.252;2023-08-21T13:10:53;95347.66;;;42.86;13.59
9261;BME280;4667;42.726;23.252;2023-08-21T13:13:20;95304.91;;;42.65;13.25
9261;BME280;4667;42.726;23.252;2023-08-21T13:15:48;95312.56;;;42.92;13.18